createdAt,value
2023-05-06T00:00:57.747Z,13.27
2023-05-06T00:03:24.445Z,13.25
2023-05-06T00:05:51.078Z,13.23
2023-05-06T00:08:17.488Z,13.21
2023-05-06T00:10:45.644Z,13.18
2023-05-06T00:13:12.462Z,13.16
2023-05-06T00:15:39.891Z,13.15
2023-05-06T00:18:06.514Z,13.11
2023-05-06T00:20:32.991Z,13.07
2023-05-06T00:22:59.592Z,13.04
2023-05-06T00:25:26.068Z,13.01
2023-05-06T00:27:53.499Z,12.96
2023-05-06T00:30:20.027Z,12.93
2023-05-06T00:32:46.478Z,12.91
2023-05-06T00:35:12.997Z,12.90
2023-05-06T00:37:39.500Z,12.88
2023-05-06T00:40:06.754Z,12.86
2023-05-06T00:42:33.487Z,12.83
2023-05-06T00:44:59.952Z,12.80
2023-05-06T00:47:26.532Z,12.78
2023-05-06T00:49:53.142Z,12.76
2023-05-06T00:52:20.071Z,12.75
2023-05-06T00:54:46.602Z,12.74
2023-05-06T00:57:13.668Z,12.71
2023-05-06T00:59:40.260Z,12.70
2023-05-06T01:02:06.718Z,12.67
2023-05-06T01:04:33.194Z,12.65
2023-05-06T01:07:23.805Z,12.64
2023-05-06T01:10:16.110Z,12.63
2023-05-06T01:13:01.896Z,12.62
2023-05-06T01:15:33.790Z,12.61
2023-05-06T01:18:04.294Z,12.60
2023-05-06T01:20:31.818Z,12.59
2023-05-06T01:22:58.451Z,12.59
2023-05-06T01:25:24.938Z,12.58
2023-05-06T01:27:51.359Z,12.58
2023-05-06T01:30:19.461Z,12.57
2023-05-06T01:33:09.046Z,12.55
2023-05-06T01:35:47.499Z,12.54
2023-05-06T01:38:32.837Z,12.53
2023-05-06T01:41:01.742Z,12.51
2023-05-06T01:43:40.881Z,12.48
2023-05-06T01:46:12.336Z,12.46
2023-05-06T01:48:39.679Z,12.43
2023-05-06T01:51:06.171Z,12.41
2023-05-06T01:53:32.916Z,12.40
2023-05-06T01:55:59.365Z,12.38
2023-05-06T01:58:25.893Z,12.37
2023-05-06T02:00:52.411Z,12.37
2023-05-06T02:03:18.936Z,12.36
2023-05-06T02:05:45.700Z,12.35
2023-05-06T02:08:12.198Z,12.33
2023-05-06T02:10:38.676Z,12.33
2023-05-06T02:13:05.694Z,12.32
2023-05-06T02:15:32.190Z,12.31
2023-05-06T02:17:58.694Z,12.30
2023-05-06T02:20:25.340Z,12.29
2023-05-06T02:22:51.795Z,12.24
2023-05-06T02:25:18.268Z,12.21
2023-05-06T02:27:44.740Z,12.20
2023-05-06T02:30:12.095Z,12.19
2023-05-06T02:32:38.619Z,12.20
2023-05-06T02:35:05.565Z,12.21
2023-05-06T02:37:31.987Z,12.21
2023-05-06T02:39:58.500Z,12.22
2023-05-06T02:42:24.968Z,12.21
2023-05-06T02:44:51.437Z,12.20
2023-05-06T02:47:17.898Z,12.18
2023-05-06T02:49:44.368Z,12.17
2023-05-06T02:52:10.822Z,12.14
2023-05-06T02:54:37.258Z,12.12
2023-05-06T02:57:03.741Z,12.10
2023-05-06T02:59:30.190Z,12.07
2023-05-06T03:01:56.602Z,12.01
2023-05-06T03:04:23.135Z,11.97
2023-05-06T03:06:49.686Z,11.97
2023-05-06T03:09:16.121Z,11.95
2023-05-06T03:11:42.584Z,11.92
2023-05-06T03:14:09.064Z,11.92
2023-05-06T03:16:35.568Z,11.93
2023-05-06T03:19:02.177Z,11.94
2023-05-06T03:21:28.701Z,11.94
2023-05-06T03:23:55.276Z,11.96
2023-05-06T03:26:21.691Z,11.98
2023-05-06T03:28:48.185Z,11.98
2023-05-06T03:31:14.638Z,11.99
2023-05-06T03:33:41.113Z,11.99
2023-05-06T03:36:07.694Z,12.00
2023-05-06T03:38:34.188Z,12.00
2023-05-06T03:41:00.671Z,12.00
2023-05-06T03:43:27.143Z,12.00
2023-05-06T03:45:53.631Z,12.00
2023-05-06T03:48:20.074Z,12.01
2023-05-06T03:50:46.720Z,12.03
2023-05-06T03:53:13.265Z,12.02
2023-05-06T03:55:39.724Z,12.03
2023-05-06T03:58:06.231Z,12.04
2023-05-06T04:00:32.800Z,12.05
2023-05-06T04:02:59.283Z,12.05
2023-05-06T04:05:25.829Z,12.05
2023-05-06T04:07:52.302Z,12.06
2023-05-06T04:10:18.858Z,12.08
2023-05-06T04:12:45.347Z,12.11
2023-05-06T04:15:12.095Z,12.12
2023-05-06T04:17:38.719Z,12.14
2023-05-06T04:20:05.664Z,12.18
2023-05-06T04:22:32.182Z,12.22
2023-05-06T04:24:58.637Z,12.26
2023-05-06T04:27:25.135Z,12.30
2023-05-06T04:29:51.597Z,12.32
2023-05-06T04:32:18.070Z,12.37
2023-05-06T04:34:44.490Z,12.43
2023-05-06T04:37:10.951Z,12.50
2023-05-06T04:39:37.379Z,12.56
2023-05-06T04:42:03.992Z,12.61
2023-05-06T04:44:30.415Z,12.66
2023-05-06T04:46:56.840Z,12.73
2023-05-06T04:49:23.325Z,12.79
2023-05-06T04:51:49.799Z,12.85
2023-05-06T04:54:16.215Z,12.90
2023-05-06T04:56:42.655Z,12.96
2023-05-06T04:59:09.081Z,13.04
2023-05-06T05:01:35.551Z,13.11
2023-05-06T05:04:01.982Z,13.17
2023-05-06T05:06:28.428Z,13.23
2023-05-06T05:08:55.476Z,13.30
2023-05-06T05:11:22.038Z,13.37
2023-05-06T05:13:48.463Z,13.44
2023-05-06T05:16:14.982Z,13.48
2023-05-06T05:18:41.443Z,13.47
2023-05-06T05:21:07.874Z,13.46
2023-05-06T05:23:34.339Z,13.45
2023-05-06T05:26:01.701Z,13.46
2023-05-06T05:28:28.135Z,13.48
2023-05-06T05:30:54.610Z,13.49
2023-05-06T05:33:21.304Z,13.52
2023-05-06T05:35:47.810Z,13.56
2023-05-06T05:38:14.252Z,13.62
2023-05-06T05:40:40.713Z,13.69
2023-05-06T05:43:07.173Z,13.79
2023-05-06T05:45:33.604Z,13.90
2023-05-06T05:48:00.121Z,14.02
2023-05-06T05:50:26.729Z,14.12
2023-05-06T05:52:53.190Z,14.24
2023-05-06T05:55:19.640Z,14.36
2023-05-06T05:57:46.091Z,14.48
2023-05-06T06:00:13.773Z,14.60
2023-05-06T06:02:40.426Z,14.71
2023-05-06T06:05:07.695Z,14.83
2023-05-06T06:07:34.411Z,14.94
2023-05-06T06:10:00.939Z,15.04
2023-05-06T06:12:27.408Z,15.15
2023-05-06T06:14:53.919Z,15.26
2023-05-06T06:17:20.459Z,15.35
2023-05-06T06:19:46.934Z,15.46
2023-05-06T06:22:13.636Z,15.58
2023-05-06T06:24:40.102Z,15.68
2023-05-06T06:27:06.521Z,15.80
2023-05-06T06:29:32.978Z,15.93
2023-05-06T06:31:59.483Z,16.07
2023-05-06T06:34:25.973Z,16.20
2023-05-06T06:36:52.381Z,16.32
2023-05-06T06:39:18.821Z,16.45
2023-05-06T06:41:45.374Z,16.57
2023-05-06T06:44:11.793Z,16.68
2023-05-06T06:46:38.241Z,16.78
2023-05-06T06:49:04.707Z,16.87
2023-05-06T06:51:31.223Z,16.99
2023-05-06T06:53:57.758Z,17.10
2023-05-06T06:56:24.260Z,17.23
2023-05-06T06:58:52.371Z,17.34
2023-05-06T07:01:19.687Z,17.48
2023-05-06T07:03:46.203Z,17.58
2023-05-06T07:06:15.031Z,17.69
2023-05-06T07:08:42.164Z,17.80
2023-05-06T07:11:08.683Z,17.92
2023-05-06T07:13:35.209Z,18.03
2023-05-06T07:16:01.640Z,18.15
2023-05-06T07:18:28.100Z,18.24
2023-05-06T07:20:54.604Z,18.34
2023-05-06T07:23:21.103Z,18.44
2023-05-06T07:25:47.715Z,18.54
2023-05-06T07:28:14.590Z,18.64
2023-05-06T07:30:41.820Z,18.76
2023-05-06T07:33:08.342Z,18.87
2023-05-06T07:35:34.850Z,18.97
2023-05-06T07:38:01.521Z,19.05
2023-05-06T07:40:27.981Z,19.12
2023-05-06T07:42:54.633Z,19.19
2023-05-06T07:45:21.120Z,19.24
2023-05-06T07:47:47.623Z,19.31
2023-05-06T07:50:14.364Z,19.40
2023-05-06T07:52:40.911Z,19.50
2023-05-06T07:55:08.330Z,19.60
2023-05-06T07:57:35.637Z,19.69
2023-05-06T08:00:04.001Z,19.79
2023-05-06T08:02:30.899Z,19.88
2023-05-06T08:04:57.449Z,19.96
2023-05-06T08:07:23.882Z,20.03
2023-05-06T08:09:50.348Z,20.11
2023-05-06T08:12:16.792Z,20.15
2023-05-06T08:14:43.283Z,20.21
2023-05-06T08:17:09.756Z,20.30
2023-05-06T08:19:36.215Z,20.37
2023-05-06T08:22:02.664Z,20.45
2023-05-06T08:24:29.092Z,20.52
2023-05-06T08:26:55.537Z,20.58
2023-05-06T08:29:22.025Z,20.63
2023-05-06T08:31:48.493Z,20.65
2023-05-06T08:34:15.014Z,20.70
2023-05-06T08:36:41.884Z,20.80
2023-05-06T08:39:08.292Z,20.92
2023-05-06T08:41:36.552Z,21.03
2023-05-06T08:44:04.328Z,21.13
2023-05-06T08:46:31.123Z,21.18
2023-05-06T08:49:00.397Z,21.22
2023-05-06T08:51:29.370Z,21.27
2023-05-06T08:54:03.599Z,21.32
2023-05-06T08:56:34.755Z,21.38
2023-05-06T08:59:01.292Z,21.46
2023-05-06T09:01:28.659Z,21.56
2023-05-06T09:03:58.344Z,21.64
2023-05-06T09:06:24.983Z,21.72
2023-05-06T09:08:51.423Z,21.81
2023-05-06T09:11:28.897Z,21.91
2023-05-06T09:14:13.150Z,22.02
2023-05-06T09:16:43.900Z,22.11
2023-05-06T09:19:11.102Z,22.21
2023-05-06T09:21:42.843Z,22.29
2023-05-06T09:24:10.519Z,22.39
2023-05-06T09:26:39.182Z,22.47
2023-05-06T09:29:06.588Z,22.53
2023-05-06T09:31:33.439Z,22.59
2023-05-06T09:34:00.573Z,22.63
2023-05-06T09:36:28.299Z,22.66
2023-05-06T09:38:55.908Z,22.70
2023-05-06T09:41:23.734Z,22.78
2023-05-06T09:43:50.219Z,22.80
2023-05-06T09:46:17.173Z,22.87
2023-05-06T09:48:45.926Z,22.98
2023-05-06T09:51:12.819Z,23.10
2023-05-06T09:53:39.434Z,23.15
2023-05-06T09:56:07.211Z,23.24
2023-05-06T09:58:35.303Z,23.30
2023-05-06T10:01:03.684Z,23.33
2023-05-06T10:03:30.993Z,23.33
2023-05-06T10:05:58.009Z,23.35
2023-05-06T10:08:25.206Z,23.39
2023-05-06T10:10:51.984Z,23.48
2023-05-06T10:13:20.445Z,23.59
2023-05-06T10:15:49.163Z,23.72
2023-05-06T10:18:16.966Z,23.79
2023-05-06T10:20:44.700Z,23.78
2023-05-06T10:23:24.374Z,23.75
2023-05-06T10:25:55.680Z,23.74
2023-05-06T10:28:26.601Z,23.77
2023-05-06T10:30:58.101Z,23.81
2023-05-06T10:33:26.092Z,23.85
2023-05-06T10:36:00.972Z,23.95
2023-05-06T10:38:37.847Z,24.07
2023-05-06T10:41:04.560Z,24.13
2023-05-06T10:43:35.116Z,24.16
2023-05-06T10:46:16.002Z,24.13
2023-05-06T10:49:04.758Z,24.08
2023-05-06T10:51:35.275Z,24.03
2023-05-06T10:54:18.065Z,24.04
2023-05-06T10:56:50.470Z,24.02
2023-05-06T10:59:27.548Z,24.06
2023-05-06T11:02:08.806Z,24.43
2023-05-06T11:04:35.207Z,25.10
2023-05-06T11:07:15.388Z,25.93
2023-05-06T11:10:05.162Z,26.51
2023-05-06T11:12:52.722Z,26.72
2023-05-06T11:15:26.402Z,26.72
2023-05-06T11:17:54.599Z,26.59
2023-05-06T11:20:24.048Z,26.43
2023-05-06T11:22:50.542Z,26.24
2023-05-06T11:25:53.250Z,26.08
2023-05-06T11:28:20.396Z,25.97
2023-05-06T11:30:55.288Z,25.82
2023-05-06T11:33:24.951Z,25.70
2023-05-06T11:35:51.490Z,25.65
2023-05-06T11:38:17.949Z,25.64
2023-05-06T11:40:44.473Z,25.59
2023-05-06T11:43:15.585Z,25.48
2023-05-06T11:45:45.887Z,25.39
2023-05-06T11:48:16.573Z,25.34
2023-05-06T11:50:47.470Z,25.30
2023-05-06T11:53:16.861Z,25.26
2023-05-06T11:55:44.653Z,25.26
2023-05-06T11:58:37.370Z,25.25
2023-05-06T12:01:04.342Z,25.20
2023-05-06T12:03:32.844Z,25.16
2023-05-06T12:06:00.212Z,25.07
2023-05-06T12:08:34.754Z,25.00
2023-05-06T12:11:08.986Z,24.93
2023-05-06T12:13:35.936Z,24.83
2023-05-06T12:16:04.336Z,24.74
2023-05-06T12:18:30.979Z,24.66
2023-05-06T12:20:57.662Z,24.58
2023-05-06T12:23:24.141Z,24.53
2023-05-06T12:26:06.279Z,24.48
2023-05-06T12:28:35.460Z,24.41
2023-05-06T12:31:21.605Z,24.32
2023-05-06T12:33:49.218Z,24.24
2023-05-06T12:36:18.012Z,24.16
2023-05-06T12:38:51.704Z,24.12
2023-05-06T12:41:21.962Z,24.06
2023-05-06T12:43:48.763Z,23.93
2023-05-06T12:46:16.797Z,23.85
2023-05-06T12:48:56.696Z,23.81
2023-05-06T12:51:23.634Z,23.77
2023-05-06T12:53:50.095Z,23.74
2023-05-06T12:56:16.656Z,23.66
2023-05-06T12:58:43.212Z,23.58
2023-05-06T13:01:09.724Z,23.57
2023-05-06T13:03:38.302Z,23.55
2023-05-06T13:06:05.421Z,23.51
2023-05-06T13:08:32.016Z,23.47
2023-05-06T13:10:58.493Z,23.42
2023-05-06T13:13:24.943Z,23.35
2023-05-06T13:15:53.274Z,23.30
2023-05-06T13:18:19.794Z,23.26
2023-05-06T13:20:46.279Z,23.25
2023-05-06T13:23:12.805Z,23.23
2023-05-06T13:25:48.164Z,23.20
2023-05-06T13:28:25.672Z,23.17
2023-05-06T13:30:52.312Z,23.15
2023-05-06T13:33:18.885Z,23.12
2023-05-06T13:35:45.385Z,23.05
2023-05-06T13:38:11.827Z,22.98
2023-05-06T13:40:38.299Z,22.91
2023-05-06T13:43:04.777Z,22.85
2023-05-06T13:45:33.295Z,22.81
2023-05-06T13:47:59.763Z,22.78
2023-05-06T13:50:26.226Z,22.74
2023-05-06T13:52:52.665Z,22.71
2023-05-06T13:55:19.598Z,22.68
2023-05-06T13:57:46.269Z,22.65
2023-05-06T14:00:13.338Z,22.62
2023-05-06T14:02:39.830Z,22.59
2023-05-06T14:05:06.933Z,22.55
2023-05-06T14:07:33.383Z,22.49
2023-05-06T14:09:59.840Z,22.36
2023-05-06T14:12:26.333Z,22.24
2023-05-06T14:14:52.759Z,22.10
2023-05-06T14:17:19.269Z,21.98
2023-05-06T14:19:45.732Z,21.85
2023-05-06T14:22:12.440Z,21.72
2023-05-06T14:24:38.920Z,21.60
2023-05-06T14:27:05.404Z,21.49
2023-05-06T14:29:31.952Z,21.40
2023-05-06T14:31:58.511Z,21.33
2023-05-06T14:34:24.987Z,21.26
2023-05-06T14:36:51.407Z,21.14
2023-05-06T14:39:17.833Z,21.01
2023-05-06T14:41:44.312Z,20.89
2023-05-06T14:44:10.811Z,20.75
2023-05-06T14:46:37.262Z,20.61
2023-05-06T14:49:03.717Z,20.44
2023-05-06T14:51:30.188Z,20.28
2023-05-06T14:53:56.693Z,20.17
2023-05-06T14:56:23.155Z,20.06
2023-05-06T14:58:49.586Z,19.99
2023-05-06T15:01:16.058Z,19.99
2023-05-06T15:03:42.571Z,19.96
2023-05-06T15:06:09.110Z,19.91
2023-05-06T15:08:35.599Z,19.88
2023-05-06T15:11:03.880Z,19.85
2023-05-06T15:13:30.789Z,19.81
2023-05-06T15:15:57.230Z,19.78
2023-05-06T15:18:23.702Z,19.74
2023-05-06T15:20:50.334Z,19.71
2023-05-06T15:23:16.783Z,19.67
2023-05-06T15:25:43.246Z,19.66
2023-05-06T15:28:09.707Z,19.67
2023-05-06T15:30:37.784Z,19.69
2023-05-06T15:33:05.324Z,19.67
2023-05-06T15:35:31.836Z,19.63
2023-05-06T15:37:58.441Z,19.60
2023-05-06T15:40:25.694Z,19.56
2023-05-06T15:42:52.319Z,19.53
2023-05-06T15:45:19.372Z,19.50
2023-05-06T15:47:45.892Z,19.48
2023-05-06T15:50:24.674Z,19.45
2023-05-06T15:52:58.793Z,19.42
2023-05-06T15:55:26.214Z,19.40
2023-05-06T15:57:53.264Z,19.40
2023-05-06T16:00:20.017Z,19.40
2023-05-06T16:02:46.774Z,19.37
2023-05-06T16:05:13.425Z,19.34
2023-05-06T16:07:39.886Z,19.32
2023-05-06T16:10:07.012Z,19.31
2023-05-06T16:12:33.535Z,19.30
2023-05-06T16:15:00.572Z,19.30
2023-05-06T16:17:27.140Z,19.35
2023-05-06T16:19:53.644Z,19.40
2023-05-06T16:22:20.092Z,19.49
2023-05-06T16:24:46.590Z,19.59
2023-05-06T16:27:13.050Z,19.69
2023-05-06T16:29:39.528Z,19.80
2023-05-06T16:32:05.982Z,19.89
2023-05-06T16:34:32.459Z,19.98
2023-05-06T16:36:58.928Z,20.02
2023-05-06T16:39:25.374Z,20.02
2023-05-06T16:41:51.871Z,19.99
2023-05-06T16:44:18.312Z,19.96
2023-05-06T16:46:44.801Z,19.92
2023-05-06T16:49:11.242Z,19.89
2023-05-06T16:51:37.700Z,19.86
2023-05-06T16:54:04.200Z,19.84
2023-05-06T16:56:43.824Z,19.83
2023-05-06T16:59:19.467Z,19.81
2023-05-06T17:01:48.092Z,19.79
2023-05-06T17:04:14.564Z,19.77
2023-05-06T17:06:41.052Z,19.76
2023-05-06T17:09:07.511Z,19.75
2023-05-06T17:11:33.958Z,19.72
2023-05-06T17:14:00.398Z,19.68
2023-05-06T17:16:26.879Z,19.63
2023-05-06T17:18:53.405Z,19.60
2023-05-06T17:21:19.881Z,19.59
2023-05-06T17:23:46.356Z,19.57
2023-05-06T17:26:12.837Z,19.54
2023-05-06T17:28:39.329Z,19.48
2023-05-06T17:31:05.834Z,19.44
2023-05-06T17:33:32.348Z,19.40
2023-05-06T17:35:58.854Z,19.36
2023-05-06T17:38:25.397Z,19.30
2023-05-06T17:40:51.919Z,19.27
2023-05-06T17:43:18.405Z,19.24
2023-05-06T17:45:44.856Z,19.21
2023-05-06T17:48:11.410Z,19.17
2023-05-06T17:50:37.945Z,19.14
2023-05-06T17:53:04.416Z,19.11
2023-05-06T17:55:30.907Z,19.09
2023-05-06T17:57:58.168Z,19.07
2023-05-06T18:00:24.695Z,19.04
2023-05-06T18:02:51.227Z,19.00
2023-05-06T18:05:17.767Z,18.97
2023-05-06T18:07:44.299Z,18.95
2023-05-06T18:10:10.954Z,18.91
2023-05-06T18:12:37.527Z,18.87
2023-05-06T18:15:04.992Z,18.84
2023-05-06T18:17:31.516Z,18.85
2023-05-06T18:19:57.984Z,18.85
2023-05-06T18:22:24.499Z,18.84
2023-05-06T18:24:50.971Z,18.84
2023-05-06T18:27:17.393Z,18.84
2023-05-06T18:29:43.848Z,18.84
2023-05-06T18:32:10.329Z,18.83
2023-05-06T18:34:36.838Z,18.82
2023-05-06T18:37:03.306Z,18.80
2023-05-06T18:39:29.976Z,18.79
2023-05-06T18:41:56.436Z,18.78
2023-05-06T18:44:22.910Z,18.77
2023-05-06T18:46:49.423Z,18.76
2023-05-06T18:49:15.893Z,18.76
2023-05-06T18:51:42.332Z,18.74
2023-05-06T18:54:08.838Z,18.73
2023-05-06T18:56:35.389Z,18.71
2023-05-06T18:59:01.904Z,18.70
2023-05-06T19:01:28.449Z,18.68
2023-05-06T19:03:55.134Z,18.65
2023-05-06T19:06:21.748Z,18.63
2023-05-06T19:08:48.228Z,18.60
2023-05-06T19:11:15.817Z,18.58
2023-05-06T19:13:42.985Z,18.57
2023-05-06T19:16:09.429Z,18.53
2023-05-06T19:18:35.956Z,18.50
2023-05-06T19:21:02.450Z,18.47
2023-05-06T19:23:28.912Z,18.45
2023-05-06T19:25:55.393Z,18.42
2023-05-06T19:28:21.876Z,18.40
2023-05-06T19:30:48.477Z,18.37
2023-05-06T19:33:15.074Z,18.34
2023-05-06T19:35:41.594Z,18.33
2023-05-06T19:38:08.940Z,18.31
2023-05-06T19:40:35.643Z,18.28
2023-05-06T19:43:02.284Z,18.25
2023-05-06T19:45:28.849Z,18.23
2023-05-06T19:47:55.274Z,18.21
2023-05-06T19:50:21.813Z,18.20
2023-05-06T19:52:48.286Z,18.20
2023-05-06T19:55:14.748Z,18.18
2023-05-06T19:57:41.212Z,18.16
2023-05-06T20:00:08.526Z,18.16
2023-05-06T20:02:36.299Z,18.17
2023-05-06T20:05:03.588Z,18.17
2023-05-06T20:07:30.086Z,18.17
2023-05-06T20:09:56.574Z,18.16
2023-05-06T20:12:24.965Z,18.14
2023-05-06T20:14:51.392Z,18.11
2023-05-06T20:17:18.422Z,18.08
2023-05-06T20:19:45.395Z,18.08
2023-05-06T20:22:11.862Z,18.08
2023-05-06T20:24:41.322Z,18.06
2023-05-06T20:27:08.121Z,18.04
2023-05-06T20:29:34.604Z,18.02
2023-05-06T20:32:01.348Z,17.99
2023-05-06T20:34:28.035Z,17.96
2023-05-06T20:36:54.484Z,17.94
2023-05-06T20:39:21.085Z,17.94
2023-05-06T20:41:47.578Z,17.93
2023-05-06T20:44:14.065Z,17.94
2023-05-06T20:46:40.554Z,17.94
2023-05-06T20:49:07.820Z,17.95
2023-05-06T20:51:34.326Z,17.94
2023-05-06T20:54:01.209Z,17.94
2023-05-06T20:56:28.224Z,17.93
2023-05-06T20:58:55.902Z,17.91
2023-05-06T21:01:24.087Z,17.90
2023-05-06T21:03:50.782Z,17.89
2023-05-06T21:06:18.679Z,17.87
2023-05-06T21:08:46.364Z,17.87
2023-05-06T21:11:13.476Z,17.85
2023-05-06T21:13:40.355Z,17.84
2023-05-06T21:16:06.760Z,17.83
2023-05-06T21:18:33.278Z,17.81
2023-05-06T21:20:59.849Z,17.78
2023-05-06T21:23:26.485Z,17.76
2023-05-06T21:25:53.106Z,17.76
2023-05-06T21:28:19.604Z,17.76
2023-05-06T21:30:46.116Z,17.76
2023-05-06T21:33:12.623Z,17.73
2023-05-06T21:35:39.102Z,17.71
2023-05-06T21:38:05.600Z,17.70
2023-05-06T21:40:32.091Z,17.70
2023-05-06T21:42:58.537Z,17.69
2023-05-06T21:45:25.032Z,17.67
2023-05-06T21:47:51.606Z,17.66
2023-05-06T21:50:18.195Z,17.65
2023-05-06T21:52:44.682Z,17.62
2023-05-06T21:55:11.504Z,17.60
2023-05-06T21:57:38.319Z,17.55
2023-05-06T22:00:06.099Z,17.50
2023-05-06T22:02:32.622Z,17.47
2023-05-06T22:04:59.098Z,17.45
2023-05-06T22:07:25.546Z,17.41
2023-05-06T22:09:51.975Z,17.38
2023-05-06T22:12:18.455Z,17.35
2023-05-06T22:14:44.899Z,17.34
2023-05-06T22:17:11.413Z,17.32
2023-05-06T22:19:37.918Z,17.26
2023-05-06T22:22:04.735Z,17.23
2023-05-06T22:24:31.195Z,17.19
2023-05-06T22:26:57.640Z,17.15
2023-05-06T22:29:24.191Z,17.11
2023-05-06T22:31:50.647Z,17.08
2023-05-06T22:34:17.148Z,17.07
2023-05-06T22:36:43.655Z,17.05
2023-05-06T22:39:10.087Z,17.02
2023-05-06T22:41:36.522Z,16.99
2023-05-06T22:44:03.010Z,16.97
2023-05-06T22:46:29.498Z,16.97
2023-05-06T22:48:55.981Z,16.97
2023-05-06T22:51:22.407Z,16.97
2023-05-06T22:53:48.844Z,16.97
2023-05-06T22:56:15.273Z,16.98
2023-05-06T22:58:41.713Z,16.99
2023-05-06T23:01:08.272Z,16.99
2023-05-06T23:03:35.559Z,16.98
2023-05-06T23:06:02.102Z,16.97
2023-05-06T23:08:28.582Z,16.94
2023-05-06T23:10:55.031Z,16.93
2023-05-06T23:13:21.565Z,16.92
2023-05-06T23:15:48.129Z,16.92
2023-05-06T23:18:14.677Z,16.90
2023-05-06T23:20:41.173Z,16.89
2023-05-06T23:23:07.627Z,16.87
2023-05-06T23:25:34.075Z,16.84
2023-05-06T23:28:00.530Z,16.82
2023-05-06T23:30:27.109Z,16.80
2023-05-06T23:32:53.681Z,16.77
2023-05-06T23:35:20.156Z,16.73
2023-05-06T23:37:46.613Z,16.71
2023-05-06T23:40:13.541Z,16.67
2023-05-06T23:42:40.556Z,16.63
2023-05-06T23:45:07.843Z,16.60
2023-05-06T23:47:34.348Z,16.55
2023-05-06T23:50:00.865Z,16.51
2023-05-06T23:52:27.349Z,16.47
2023-05-06T23:54:53.812Z,16.44
2023-05-06T23:57:20.380Z,16.42
2023-05-06T23:59:46.810Z,16.39
